createdAt,value
2018-11-29T00:00:05.883Z,-0.62
2018-11-29T00:01:05.404Z,-0.62
2018-11-29T00:02:05.448Z,-0.62
2018-11-29T00:03:05.838Z,-0.69
2018-11-29T00:04:05.128Z,-0.62
2018-11-29T00:05:05.459Z,-0.69
2018-11-29T00:06:05.347Z,-0.69
2018-11-29T00:07:05.977Z,-0.69
2018-11-29T00:08:05.341Z,-0.69
2018-11-29T00:09:05.234Z,-0.69
2018-11-29T00:10:05.132Z,-0.69
2018-11-29T00:11:05.288Z,-0.69
2018-11-29T00:12:05.361Z,-0.69
2018-11-29T00:13:05.523Z,-0.75
2018-11-29T00:14:05.126Z,-0.75
2018-11-29T00:15:05.128Z,-0.75
2018-11-29T00:16:05.751Z,-0.75
2018-11-29T00:17:05.607Z,-0.75
2018-11-29T00:18:05.585Z,-0.75
2018-11-29T00:19:05.044Z,-0.75
2018-11-29T00:20:05.022Z,-0.75
2018-11-29T00:21:05.607Z,-0.75
2018-11-29T00:22:06.187Z,-0.75
2018-11-29T00:23:05.223Z,-0.75
2018-11-29T00:24:05.027Z,-0.75
2018-11-29T00:25:05.127Z,-0.75
2018-11-29T00:26:05.584Z,-0.75
2018-11-29T00:27:05.382Z,-0.69
2018-11-29T00:28:05.412Z,-0.75
2018-11-29T00:29:05.872Z,-0.75
2018-11-29T00:30:05.824Z,-0.75
2018-11-29T00:31:05.980Z,-0.75
2018-11-29T00:32:05.194Z,-0.69
2018-11-29T00:33:06.103Z,-0.69
2018-11-29T00:34:05.048Z,-0.69
2018-11-29T00:35:05.305Z,-0.69
2018-11-29T00:36:05.350Z,-0.62
2018-11-29T00:37:05.393Z,-0.56
2018-11-29T00:38:05.425Z,-0.62
2018-11-29T00:39:05.614Z,-0.62
2018-11-29T00:40:05.523Z,-0.62
2018-11-29T00:41:05.866Z,-0.62
2018-11-29T00:42:05.901Z,-0.69
2018-11-29T00:43:06.004Z,-0.62
2018-11-29T00:44:05.502Z,-0.62
2018-11-29T00:45:05.033Z,-0.69
2018-11-29T00:46:05.534Z,-0.62
2018-11-29T00:47:05.434Z,-0.62
2018-11-29T00:48:05.588Z,-0.62
2018-11-29T00:49:05.074Z,-0.62
2018-11-29T00:50:05.212Z,-0.62
2018-11-29T00:51:05.310Z,-0.62
2018-11-29T00:52:05.176Z,-0.62
2018-11-29T00:53:06.108Z,-0.62
2018-11-29T00:54:06.146Z,-0.62
2018-11-29T00:55:06.008Z,-0.56
2018-11-29T00:56:05.692Z,-0.56
2018-11-29T00:57:05.722Z,-0.56
2018-11-29T00:58:05.871Z,-0.56
2018-11-29T00:59:05.849Z,-0.56
2018-11-29T01:00:05.260Z,-0.56
2018-11-29T01:01:05.283Z,-0.62
2018-11-29T01:02:05.436Z,-0.62
2018-11-29T01:03:06.007Z,-0.62
2018-11-29T01:04:06.098Z,-0.62
2018-11-29T01:05:05.138Z,-0.62
2018-11-29T01:06:05.050Z,-0.56
2018-11-29T01:07:05.126Z,-0.56
2018-11-29T01:08:05.442Z,-0.62
2018-11-29T01:09:06.029Z,-0.62
2018-11-29T01:10:05.326Z,-0.62
2018-11-29T01:11:05.509Z,-0.62
2018-11-29T01:12:05.921Z,-0.56
2018-11-29T01:13:05.141Z,-0.56
2018-11-29T01:14:05.450Z,-0.56
2018-11-29T01:15:05.599Z,-0.56
2018-11-29T01:16:05.929Z,-0.56
2018-11-29T01:17:05.042Z,-0.56
2018-11-29T01:18:05.499Z,-0.56
2018-11-29T01:19:05.769Z,-0.56
2018-11-29T01:20:05.124Z,-0.62
2018-11-29T01:21:05.113Z,-0.56
2018-11-29T01:22:05.428Z,-0.62
2018-11-29T01:23:05.461Z,-0.62
2018-11-29T01:24:05.764Z,-0.62
2018-11-29T01:25:05.688Z,-0.62
2018-11-29T01:26:05.186Z,-0.56
2018-11-29T01:27:05.520Z,-0.56
2018-11-29T01:28:05.676Z,-0.62
2018-11-29T01:29:05.081Z,-0.62
2018-11-29T01:30:05.189Z,-0.62
2018-11-29T01:31:05.223Z,-0.62
2018-11-29T01:32:05.999Z,-0.62
2018-11-29T01:33:05.404Z,-0.62
2018-11-29T01:34:05.503Z,-0.62
2018-11-29T01:35:06.009Z,-0.62
2018-11-29T01:36:05.121Z,-0.56
2018-11-29T01:37:05.868Z,-0.56
2018-11-29T01:38:05.500Z,-0.62
2018-11-29T01:39:05.065Z,-0.62
2018-11-29T01:40:05.135Z,-0.62
2018-11-29T01:41:05.200Z,-0.62
2018-11-29T01:42:05.913Z,-0.56
2018-11-29T01:43:05.987Z,-0.56
2018-11-29T01:44:05.277Z,-0.56
2018-11-29T01:45:05.450Z,-0.56
2018-11-29T01:46:04.966Z,-0.56
2018-11-29T01:47:05.450Z,-0.56
2018-11-29T01:48:05.995Z,-0.56
2018-11-29T01:49:05.317Z,-0.56
2018-11-29T01:50:05.772Z,-0.56
2018-11-29T01:51:05.219Z,-0.56
2018-11-29T01:52:05.058Z,-0.56
2018-11-29T01:53:05.252Z,-0.56
2018-11-29T01:54:05.457Z,-0.56
2018-11-29T01:55:05.391Z,-0.56
2018-11-29T01:56:05.513Z,-0.62
2018-11-29T01:57:05.147Z,-0.62
2018-11-29T01:58:05.688Z,-0.62
2018-11-29T01:59:06.015Z,-0.62
2018-11-29T02:00:05.632Z,-0.62
2018-11-29T02:01:05.917Z,-0.62
2018-11-29T02:02:05.356Z,-0.62
2018-11-29T02:03:05.550Z,-0.62
2018-11-29T02:04:05.446Z,-0.62
2018-11-29T02:05:05.623Z,-0.62
2018-11-29T02:06:05.685Z,-0.62
2018-11-29T02:07:05.111Z,-0.62
2018-11-29T02:08:05.634Z,-0.62
2018-11-29T02:09:05.928Z,-0.62
2018-11-29T02:10:05.998Z,-0.62
2018-11-29T02:11:05.131Z,-0.62
2018-11-29T02:12:05.101Z,-0.56
2018-11-29T02:13:05.767Z,-0.62
2018-11-29T02:14:05.044Z,-0.62
2018-11-29T02:15:05.852Z,-0.62
2018-11-29T02:16:05.916Z,-0.62
2018-11-29T02:17:05.853Z,-0.62
2018-11-29T02:18:05.031Z,-0.62
2018-11-29T02:19:05.155Z,-0.56
2018-11-29T02:20:05.183Z,-0.56
2018-11-29T02:21:05.291Z,-0.62
2018-11-29T02:22:05.305Z,-0.62
2018-11-29T02:23:05.441Z,-0.62
2018-11-29T02:24:06.003Z,-0.56
2018-11-29T02:25:06.003Z,-0.56
2018-11-29T02:26:05.042Z,-0.56
2018-11-29T02:27:05.216Z,-0.56
2018-11-29T02:28:05.528Z,-0.56
2018-11-29T02:29:05.913Z,-0.56
2018-11-29T02:30:05.119Z,-0.56
2018-11-29T02:31:05.251Z,-0.56
2018-11-29T02:32:05.182Z,-0.56
2018-11-29T02:33:05.304Z,-0.56
2018-11-29T02:34:05.783Z,-0.56
2018-11-29T02:35:05.748Z,-0.56
2018-11-29T02:36:05.846Z,-0.56
2018-11-29T02:37:05.211Z,-0.50
2018-11-29T02:38:05.594Z,-0.50
2018-11-29T02:39:05.990Z,-0.50
2018-11-29T02:40:05.360Z,-0.56
2018-11-29T02:41:05.788Z,-0.56
2018-11-29T02:42:05.996Z,-0.50
2018-11-29T02:43:05.305Z,-0.50
2018-11-29T02:44:05.612Z,-0.50
2018-11-29T02:45:05.619Z,-0.44
2018-11-29T02:46:05.373Z,-0.50
2018-11-29T02:47:05.927Z,-0.50
2018-11-29T02:48:05.223Z,-0.44
2018-11-29T02:49:05.822Z,-0.44
2018-11-29T02:50:05.049Z,-0.50
2018-11-29T02:51:05.184Z,-0.44
2018-11-29T02:52:05.303Z,-0.44
2018-11-29T02:53:05.668Z,-0.44
2018-11-29T02:54:05.765Z,-0.44
2018-11-29T02:55:05.919Z,-0.44
2018-11-29T02:56:05.228Z,-0.38
2018-11-29T02:57:05.738Z,-0.38
2018-11-29T02:58:05.850Z,-0.44
2018-11-29T02:59:06.038Z,-0.44
2018-11-29T03:00:05.929Z,-0.44
2018-11-29T03:01:06.082Z,-0.44
2018-11-29T03:02:05.009Z,-0.38
2018-11-29T03:03:05.225Z,-0.44
2018-11-29T03:04:05.550Z,-0.44
2018-11-29T03:05:06.074Z,-0.44
2018-11-29T03:06:05.060Z,-0.44
2018-11-29T03:07:05.671Z,-0.38
2018-11-29T03:08:05.777Z,-0.38
2018-11-29T03:09:05.224Z,-0.38
2018-11-29T03:10:05.387Z,-0.38
2018-11-29T03:11:05.355Z,-0.31
2018-11-29T03:12:05.445Z,-0.38
2018-11-29T03:13:05.541Z,-0.38
2018-11-29T03:14:05.844Z,-0.38
2018-11-29T03:15:05.365Z,-0.38
2018-11-29T03:16:05.594Z,-0.31
2018-11-29T03:17:05.825Z,-0.31
2018-11-29T03:18:05.935Z,-0.31
2018-11-29T03:19:05.539Z,-0.31
2018-11-29T03:20:05.890Z,-0.31
2018-11-29T03:21:05.865Z,-0.31
2018-11-29T03:22:06.023Z,-0.31
2018-11-29T03:23:06.117Z,-0.31
2018-11-29T03:24:05.235Z,-0.31
2018-11-29T03:25:05.225Z,-0.31
2018-11-29T03:26:05.310Z,-0.31
2018-11-29T03:27:05.023Z,-0.31
2018-11-29T03:28:05.227Z,-0.31
2018-11-29T03:29:05.199Z,-0.31
2018-11-29T03:30:05.928Z,-0.31
2018-11-29T03:31:05.218Z,-0.31
2018-11-29T03:32:05.370Z,-0.25
2018-11-29T03:33:05.338Z,-0.25
2018-11-29T03:34:05.628Z,-0.31
2018-11-29T03:35:05.457Z,-0.31
2018-11-29T03:36:05.868Z,-0.25
2018-11-29T03:37:05.995Z,-0.25
2018-11-29T03:38:05.517Z,-0.25
2018-11-29T03:39:05.868Z,-0.25
2018-11-29T03:40:05.219Z,-0.25
2018-11-29T03:41:05.238Z,-0.31
2018-11-29T03:42:05.522Z,-0.31
2018-11-29T03:43:05.594Z,-0.31
2018-11-29T03:44:05.308Z,-0.31
2018-11-29T03:45:05.040Z,-0.31
2018-11-29T03:46:05.301Z,-0.25
2018-11-29T03:47:05.274Z,-0.25
2018-11-29T03:48:06.824Z,-0.25
2018-11-29T03:49:05.107Z,-0.31
2018-11-29T03:50:05.306Z,-0.31
2018-11-29T03:51:05.218Z,-0.31
2018-11-29T03:52:06.022Z,-0.31
2018-11-29T03:53:05.109Z,-0.31
2018-11-29T03:54:05.204Z,-0.31
2018-11-29T03:55:05.148Z,-0.31
2018-11-29T03:56:05.449Z,-0.31
2018-11-29T03:57:05.761Z,-0.31
2018-11-29T03:58:05.224Z,-0.31
2018-11-29T03:59:05.297Z,-0.25
2018-11-29T04:00:05.308Z,-0.25
2018-11-29T04:01:05.754Z,-0.25
2018-11-29T04:02:05.031Z,-0.31
2018-11-29T04:03:05.682Z,-0.31
2018-11-29T04:04:05.410Z,-0.25
2018-11-29T04:05:05.782Z,-0.25
2018-11-29T04:06:05.948Z,-0.25
2018-11-29T04:07:06.013Z,-0.25
2018-11-29T04:08:05.448Z,-0.25
2018-11-29T04:09:05.370Z,-0.19
2018-11-29T04:10:05.418Z,-0.25
2018-11-29T04:11:05.212Z,-0.25
2018-11-29T04:12:05.226Z,-0.25
2018-11-29T04:13:05.508Z,-0.19
2018-11-29T04:14:05.936Z,-0.19
2018-11-29T04:15:06.010Z,-0.19
2018-11-29T04:16:05.346Z,-0.19
2018-11-29T04:17:05.369Z,-0.25
2018-11-29T04:18:05.537Z,-0.25
2018-11-29T04:19:05.506Z,-0.25
2018-11-29T04:20:05.742Z,-0.25
2018-11-29T04:21:05.931Z,-0.25
2018-11-29T04:22:05.860Z,-0.19
2018-11-29T04:23:05.159Z,-0.19
2018-11-29T04:24:05.203Z,-0.19
2018-11-29T04:25:05.190Z,-0.19
2018-11-29T04:26:05.334Z,-0.19
2018-11-29T04:27:05.118Z,-0.19
2018-11-29T04:28:06.384Z,-0.19
2018-11-29T04:29:05.949Z,-0.19
2018-11-29T04:30:05.843Z,-0.19
2018-11-29T04:31:05.926Z,-0.19
2018-11-29T04:32:05.274Z,-0.19
2018-11-29T04:33:05.455Z,-0.19
2018-11-29T04:34:05.456Z,-0.19
2018-11-29T04:35:05.420Z,-0.19
2018-11-29T04:36:05.832Z,-0.19
2018-11-29T04:37:05.940Z,-0.19
2018-11-29T04:38:05.903Z,-0.25
2018-11-29T04:39:05.530Z,-0.19
2018-11-29T04:40:05.114Z,-0.19
2018-11-29T04:41:05.207Z,-0.19
2018-11-29T04:42:05.847Z,-0.25
2018-11-29T04:43:05.937Z,-0.25
2018-11-29T04:44:05.986Z,-0.25
2018-11-29T04:45:05.131Z,-0.25
2018-11-29T04:46:05.283Z,-0.25
2018-11-29T04:47:05.306Z,-0.19
2018-11-29T04:48:09.920Z,-0.19
2018-11-29T04:49:05.599Z,-0.25
2018-11-29T04:50:06.021Z,-0.19
2018-11-29T04:51:05.230Z,-0.19
2018-11-29T04:52:05.155Z,-0.19
2018-11-29T04:53:05.351Z,-0.19
2018-11-29T04:54:05.627Z,-0.19
2018-11-29T04:55:05.527Z,-0.12
2018-11-29T04:56:05.777Z,-0.12
2018-11-29T04:57:05.835Z,-0.12
2018-11-29T04:58:06.090Z,-0.06
2018-11-29T04:59:05.032Z,-0.12
2018-11-29T05:00:05.141Z,-0.12
2018-11-29T05:01:05.398Z,-0.12
2018-11-29T05:02:05.466Z,-0.06
2018-11-29T05:03:05.529Z,-0.06
2018-11-29T05:04:05.627Z,-0.06
2018-11-29T05:05:05.435Z,-0.06
2018-11-29T05:06:05.705Z,-0.06
2018-11-29T05:07:05.672Z,-0.06
2018-11-29T05:08:05.992Z,0.00
2018-11-29T05:09:05.144Z,0.00
2018-11-29T05:10:05.599Z,0.00
2018-11-29T05:11:05.706Z,0.00
2018-11-29T05:12:05.841Z,0.12
2018-11-29T05:13:06.044Z,0.12
2018-11-29T05:14:06.083Z,0.12
2018-11-29T05:15:05.542Z,0.12
2018-11-29T05:16:05.916Z,0.12
2018-11-29T05:17:05.606Z,0.12
2018-11-29T05:18:05.844Z,0.12
2018-11-29T05:19:05.632Z,0.12
2018-11-29T05:20:05.597Z,0.12
2018-11-29T05:21:05.703Z,0.19
2018-11-29T05:22:05.771Z,0.19
2018-11-29T05:23:06.035Z,0.25
2018-11-29T05:24:05.943Z,0.25
2018-11-29T05:25:05.779Z,0.25
2018-11-29T05:26:06.002Z,0.25
2018-11-29T05:27:05.385Z,0.25
2018-11-29T05:28:05.273Z,0.25
2018-11-29T05:29:05.843Z,0.31
2018-11-29T05:30:05.772Z,0.31
2018-11-29T05:31:05.604Z,0.31
2018-11-29T05:32:05.148Z,0.31
2018-11-29T05:33:05.446Z,0.31
2018-11-29T05:34:05.912Z,0.31
2018-11-29T05:35:06.003Z,0.31
2018-11-29T05:36:06.101Z,0.38
2018-11-29T05:37:05.310Z,0.38
2018-11-29T05:38:05.382Z,0.38
2018-11-29T05:39:05.691Z,0.31
2018-11-29T05:40:05.737Z,0.38
2018-11-29T05:41:05.378Z,0.38
2018-11-29T05:42:05.817Z,0.38
2018-11-29T05:43:05.384Z,0.38
2018-11-29T05:44:05.418Z,0.38
2018-11-29T05:45:05.034Z,0.44
2018-11-29T05:46:05.359Z,0.38
2018-11-29T05:47:05.432Z,0.38
2018-11-29T05:48:05.828Z,0.38
2018-11-29T05:49:05.216Z,0.38
2018-11-29T05:50:05.918Z,0.44
2018-11-29T05:51:05.300Z,0.44
2018-11-29T05:52:05.746Z,0.44
2018-11-29T05:53:05.945Z,0.50
2018-11-29T05:54:05.893Z,0.44
2018-11-29T05:55:05.128Z,0.44
2018-11-29T05:56:05.190Z,0.50
2018-11-29T05:57:05.452Z,0.50
2018-11-29T05:58:05.989Z,0.50
2018-11-29T05:59:05.050Z,0.50
2018-11-29T06:00:05.196Z,0.50
2018-11-29T06:01:05.834Z,0.50
2018-11-29T06:02:05.097Z,0.50
2018-11-29T06:03:05.378Z,0.50
2018-11-29T06:04:05.285Z,0.50
2018-11-29T06:05:05.197Z,0.50
2018-11-29T06:06:05.900Z,0.50
2018-11-29T06:07:06.093Z,0.50
2018-11-29T06:08:05.472Z,0.56
2018-11-29T06:09:05.900Z,0.56
2018-11-29T06:10:05.119Z,0.56
2018-11-29T06:11:05.614Z,0.50
2018-11-29T06:12:05.682Z,0.50
2018-11-29T06:13:05.686Z,0.50
2018-11-29T06:14:05.750Z,0.56
2018-11-29T06:15:05.303Z,0.50
2018-11-29T06:16:05.838Z,0.50
2018-11-29T06:17:05.667Z,0.50
2018-11-29T06:18:05.766Z,0.50
2018-11-29T06:19:05.367Z,0.50
2018-11-29T06:20:05.470Z,0.56
2018-11-29T06:21:05.449Z,0.56
2018-11-29T06:22:05.454Z,0.56
2018-11-29T06:23:05.416Z,0.56
2018-11-29T06:24:06.048Z,0.56
2018-11-29T06:25:05.203Z,0.56
2018-11-29T06:26:06.113Z,0.56
2018-11-29T06:27:05.168Z,0.56
2018-11-29T06:28:05.533Z,0.56
2018-11-29T06:29:05.355Z,0.56
2018-11-29T06:30:05.617Z,0.56
2018-11-29T06:31:05.673Z,0.56
2018-11-29T06:32:05.225Z,0.56
2018-11-29T06:33:05.203Z,0.56
2018-11-29T06:34:05.720Z,0.56
2018-11-29T06:35:05.674Z,0.56
2018-11-29T06:36:05.195Z,0.56
2018-11-29T06:37:05.210Z,0.56
2018-11-29T06:38:05.918Z,0.56
2018-11-29T06:39:06.039Z,0.56
2018-11-29T06:40:05.600Z,0.56
2018-11-29T06:41:05.925Z,0.56
2018-11-29T06:42:05.074Z,0.56
2018-11-29T06:43:05.426Z,0.56
2018-11-29T06:44:05.517Z,0.56
2018-11-29T06:45:06.100Z,0.56
2018-11-29T06:46:05.610Z,0.56
2018-11-29T06:47:05.605Z,0.56
2018-11-29T06:48:06.060Z,0.56
2018-11-29T06:49:05.522Z,0.56
2018-11-29T06:50:05.904Z,0.56
2018-11-29T06:51:06.022Z,0.56
2018-11-29T06:52:05.847Z,0.56
2018-11-29T06:53:06.187Z,0.56
2018-11-29T06:54:05.264Z,0.56
2018-11-29T06:55:05.643Z,0.56
2018-11-29T06:56:05.388Z,0.56
2018-11-29T06:57:05.693Z,0.56
2018-11-29T06:58:05.500Z,0.56
2018-11-29T06:59:05.607Z,0.56
2018-11-29T07:00:05.314Z,0.56
2018-11-29T07:01:05.611Z,0.56
2018-11-29T07:02:05.131Z,0.56
2018-11-29T07:03:05.227Z,0.56
2018-11-29T07:04:05.346Z,0.56
2018-11-29T07:05:05.932Z,0.56
2018-11-29T07:06:05.221Z,0.56
2018-11-29T07:07:05.265Z,0.56
2018-11-29T07:08:05.663Z,0.56
2018-11-29T07:09:05.986Z,0.62
2018-11-29T07:10:05.617Z,0.62
2018-11-29T07:11:05.657Z,0.62
2018-11-29T07:12:05.306Z,0.62
2018-11-29T07:13:05.210Z,0.62
2018-11-29T07:14:05.685Z,0.62
2018-11-29T07:15:05.994Z,0.62
2018-11-29T07:16:05.067Z,0.62
2018-11-29T07:17:05.176Z,0.62
2018-11-29T07:18:05.399Z,0.62
2018-11-29T07:19:05.764Z,0.62
2018-11-29T07:20:05.300Z,0.62
2018-11-29T07:21:06.093Z,0.69
2018-11-29T07:22:05.203Z,0.62
2018-11-29T07:23:05.528Z,0.69
2018-11-29T07:24:05.886Z,0.62
2018-11-29T07:25:06.010Z,0.62
2018-11-29T07:26:05.055Z,0.69
2018-11-29T07:27:05.284Z,0.69
2018-11-29T07:29:05.071Z,0.69
2018-11-29T07:30:05.535Z,0.69
2018-11-29T07:31:05.307Z,0.69
2018-11-29T07:32:05.461Z,0.75
2018-11-29T07:33:06.227Z,0.75
2018-11-29T07:34:05.233Z,0.75
2018-11-29T07:35:05.487Z,0.75
2018-11-29T07:36:05.688Z,0.81
2018-11-29T07:37:05.680Z,0.75
2018-11-29T07:38:05.905Z,0.75
2018-11-29T07:39:05.383Z,0.75
2018-11-29T07:40:06.003Z,0.81
2018-11-29T07:41:05.267Z,0.81
2018-11-29T07:42:05.611Z,0.81
2018-11-29T07:43:05.932Z,0.81
2018-11-29T07:44:05.579Z,0.81
2018-11-29T07:45:05.188Z,0.81
2018-11-29T07:46:05.438Z,0.81
2018-11-29T07:47:05.372Z,0.88
2018-11-29T07:48:05.591Z,0.88
2018-11-29T07:49:05.764Z,0.88
2018-11-29T07:50:05.593Z,0.88
2018-11-29T07:51:05.788Z,0.94
2018-11-29T07:52:05.662Z,0.94
2018-11-29T07:53:05.754Z,0.94
2018-11-29T07:54:06.000Z,0.94
2018-11-29T07:55:05.460Z,0.94
2018-11-29T07:56:05.420Z,1.00
2018-11-29T07:57:05.474Z,1.00
2018-11-29T07:58:05.269Z,1.00
2018-11-29T07:59:05.149Z,1.00
2018-11-29T08:00:05.425Z,1.00
2018-11-29T08:01:05.066Z,1.06
2018-11-29T08:02:05.296Z,1.06
2018-11-29T08:03:05.687Z,1.06
2018-11-29T08:04:06.061Z,1.06
2018-11-29T08:05:05.137Z,1.12
2018-11-29T08:06:05.293Z,1.12
2018-11-29T08:07:05.909Z,1.12
2018-11-29T08:08:05.000Z,1.12
2018-11-29T08:09:05.290Z,1.19
2018-11-29T08:10:05.777Z,1.19
2018-11-29T08:11:05.540Z,1.19
2018-11-29T08:12:05.691Z,1.25
2018-11-29T08:13:05.374Z,1.25
2018-11-29T08:14:05.847Z,1.31
2018-11-29T08:15:05.840Z,1.31
2018-11-29T08:16:05.195Z,1.31
2018-11-29T08:17:05.690Z,1.31
2018-11-29T08:18:05.592Z,1.31
2018-11-29T08:19:05.891Z,1.31
2018-11-29T08:20:05.535Z,1.38
2018-11-29T08:21:05.656Z,1.38
2018-11-29T08:22:06.007Z,1.44
2018-11-29T08:23:05.293Z,1.44
2018-11-29T08:24:05.375Z,1.50
2018-11-29T08:25:05.524Z,1.50
2018-11-29T08:26:05.366Z,1.50
2018-11-29T08:27:05.927Z,1.50
2018-11-29T08:28:05.934Z,1.50
2018-11-29T08:29:05.252Z,1.50
2018-11-29T08:30:05.473Z,1.50
2018-11-29T08:31:05.345Z,1.56
2018-11-29T08:32:05.942Z,1.56
2018-11-29T08:33:05.373Z,1.56
2018-11-29T08:34:05.650Z,1.62
2018-11-29T08:35:06.087Z,1.62
2018-11-29T08:36:05.985Z,1.69
2018-11-29T08:37:05.230Z,1.69
2018-11-29T08:38:05.345Z,1.69
2018-11-29T08:39:05.996Z,1.69
2018-11-29T08:40:05.258Z,1.69
2018-11-29T08:41:06.399Z,1.75
2018-11-29T08:42:05.103Z,1.75
2018-11-29T08:43:05.285Z,1.75
2018-11-29T08:44:06.473Z,1.81
2018-11-29T08:46:05.960Z,1.88
2018-11-29T08:46:10.419Z,1.81
2018-11-29T08:47:05.608Z,1.88
2018-11-29T08:48:05.522Z,1.88
2018-11-29T08:49:06.014Z,1.94
2018-11-29T08:50:05.753Z,1.94
2018-11-29T08:51:05.607Z,2.00
2018-11-29T08:52:05.934Z,2.00
2018-11-29T08:53:05.119Z,2.00
2018-11-29T08:54:05.819Z,2.06
2018-11-29T08:55:06.012Z,2.06
2018-11-29T08:56:05.068Z,2.06
2018-11-29T08:57:05.302Z,2.06
2018-11-29T08:58:05.366Z,2.06
2018-11-29T08:59:05.435Z,2.06
2018-11-29T09:00:05.848Z,2.06
2018-11-29T09:01:05.158Z,2.12
2018-11-29T09:02:06.588Z,2.12
2018-11-29T09:03:05.914Z,2.12
2018-11-29T09:04:05.939Z,2.12
2018-11-29T09:05:05.913Z,2.19
2018-11-29T09:06:05.700Z,2.19
2018-11-29T09:07:05.989Z,2.19
2018-11-29T09:08:05.454Z,2.25
2018-11-29T09:09:05.664Z,2.25
2018-11-29T09:10:05.849Z,2.25
2018-11-29T09:11:05.896Z,2.25
2018-11-29T09:12:05.075Z,2.31
2018-11-29T09:13:05.539Z,2.31
2018-11-29T09:14:05.526Z,2.31
2018-11-29T09:15:05.049Z,2.38
2018-11-29T09:16:05.830Z,2.38
2018-11-29T09:17:05.988Z,2.38
2018-11-29T09:18:05.634Z,2.38
2018-11-29T09:19:05.736Z,2.38
2018-11-29T09:20:05.829Z,2.38
2018-11-29T09:21:06.091Z,2.38
2018-11-29T09:22:05.038Z,2.38
2018-11-29T09:23:05.096Z,2.44
2018-11-29T09:24:05.446Z,2.50
2018-11-29T09:25:05.440Z,2.50
2018-11-29T09:26:05.626Z,2.50
2018-11-29T09:27:06.097Z,2.50
2018-11-29T09:28:06.180Z,2.50
2018-11-29T09:29:05.698Z,2.50
2018-11-29T09:30:06.111Z,2.56
2018-11-29T09:31:05.313Z,2.62
2018-11-29T09:32:05.547Z,2.56
2018-11-29T09:33:05.607Z,2.62
2018-11-29T09:34:05.775Z,2.62
2018-11-29T09:35:05.120Z,2.62
2018-11-29T09:36:05.534Z,2.62
2018-11-29T09:37:06.018Z,2.62
2018-11-29T09:38:06.012Z,2.69
2018-11-29T09:39:06.091Z,2.62
2018-11-29T09:40:05.305Z,2.62
2018-11-29T09:41:05.446Z,2.62
2018-11-29T09:42:05.675Z,2.62
2018-11-29T09:43:06.104Z,2.62
2018-11-29T09:44:05.431Z,2.69
2018-11-29T09:45:05.620Z,2.69
2018-11-29T09:46:05.135Z,2.69
2018-11-29T09:47:05.537Z,2.75
2018-11-29T09:48:05.663Z,2.81
2018-11-29T09:49:05.849Z,2.81
2018-11-29T09:50:05.559Z,2.81
2018-11-29T09:51:05.813Z,2.81
2018-11-29T09:52:05.657Z,2.81
2018-11-29T09:53:05.086Z,2.81
2018-11-29T09:54:05.477Z,2.81
2018-11-29T09:55:05.697Z,2.81
2018-11-29T09:56:05.149Z,2.88
2018-11-29T09:57:05.460Z,2.88
2018-11-29T09:58:05.446Z,2.94
2018-11-29T09:59:05.765Z,2.94
2018-11-29T10:00:06.075Z,2.94
2018-11-29T10:01:06.030Z,2.94
2018-11-29T10:02:05.128Z,3.00
2018-11-29T10:03:05.299Z,3.00
2018-11-29T10:04:05.379Z,3.00
2018-11-29T10:05:05.469Z,3.00
2018-11-29T10:06:07.449Z,3.06
2018-11-29T10:07:06.002Z,3.06
2018-11-29T10:08:11.678Z,3.06
2018-11-29T10:09:05.554Z,3.12
2018-11-29T10:10:05.849Z,3.12
2018-11-29T10:11:06.001Z,3.19
2018-11-29T10:12:05.933Z,3.19
2018-11-29T10:13:06.083Z,3.19
2018-11-29T10:14:05.534Z,3.19
2018-11-29T10:15:05.531Z,3.19
2018-11-29T10:16:05.522Z,3.25
2018-11-29T10:17:05.170Z,3.25
2018-11-29T10:18:05.375Z,3.25
2018-11-29T10:19:05.525Z,3.31
2018-11-29T10:20:05.548Z,3.31
2018-11-29T10:21:05.843Z,3.38
2018-11-29T10:22:05.694Z,3.38
2018-11-29T10:23:05.620Z,3.38
2018-11-29T10:24:05.767Z,3.38
2018-11-29T10:25:05.739Z,3.44
2018-11-29T10:26:06.714Z,3.44
2018-11-29T10:27:05.126Z,3.44
2018-11-29T10:28:05.224Z,3.44
2018-11-29T10:29:05.606Z,3.44
2018-11-29T10:30:05.972Z,3.50
2018-11-29T10:31:05.140Z,3.50
2018-11-29T10:32:05.614Z,3.50
2018-11-29T10:33:05.919Z,3.50
2018-11-29T10:34:05.292Z,3.56
2018-11-29T10:35:05.372Z,3.62
2018-11-29T10:36:05.626Z,3.62
2018-11-29T10:37:05.581Z,3.62
2018-11-29T10:38:05.847Z,3.62
2018-11-29T10:39:05.134Z,3.69
2018-11-29T10:40:05.219Z,3.75
2018-11-29T10:41:05.528Z,3.75
2018-11-29T10:42:05.858Z,3.75
2018-11-29T10:43:05.983Z,3.75
2018-11-29T10:44:05.317Z,3.81
2018-11-29T10:45:05.593Z,3.81
2018-11-29T10:46:05.779Z,3.88
2018-11-29T10:47:05.830Z,3.88
2018-11-29T10:48:05.755Z,3.88
2018-11-29T10:49:06.013Z,3.88
2018-11-29T10:50:05.457Z,3.94
2018-11-29T10:51:05.416Z,3.94
2018-11-29T10:52:05.520Z,3.94
2018-11-29T10:53:05.705Z,3.94
2018-11-29T10:54:05.738Z,4.00
2018-11-29T10:55:05.926Z,4.00
2018-11-29T10:56:05.859Z,4.00
2018-11-29T10:57:06.002Z,4.00
2018-11-29T10:58:05.759Z,4.06
2018-11-29T10:59:05.706Z,4.06
2018-11-29T11:00:05.130Z,4.06
2018-11-29T11:01:05.196Z,4.12
2018-11-29T11:02:05.843Z,4.12
2018-11-29T11:03:05.143Z,4.19
2018-11-29T11:04:05.420Z,4.19
2018-11-29T11:06:05.855Z,4.25
2018-11-29T11:07:05.456Z,4.25
2018-11-29T11:08:08.327Z,4.25
2018-11-29T11:09:06.001Z,4.25
2018-11-29T11:10:05.545Z,4.25
2018-11-29T11:11:05.533Z,4.25
2018-11-29T11:12:05.780Z,4.31
2018-11-29T11:13:05.382Z,4.25
2018-11-29T11:14:05.527Z,4.31
2018-11-29T11:15:05.710Z,4.31
2018-11-29T11:16:05.663Z,4.31
2018-11-29T11:17:05.838Z,4.38
2018-11-29T11:18:05.089Z,4.38
2018-11-29T11:19:07.612Z,4.44
2018-11-29T11:20:05.157Z,4.44
2018-11-29T11:21:05.217Z,4.44
2018-11-29T11:22:05.300Z,4.50
2018-11-29T11:23:05.861Z,4.50
2018-11-29T11:24:05.995Z,4.50
2018-11-29T11:25:05.058Z,4.56
2018-11-29T11:26:06.638Z,4.56
2018-11-29T11:27:05.180Z,4.62
2018-11-29T11:28:05.537Z,4.62
2018-11-29T11:29:05.817Z,4.69
2018-11-29T11:30:05.355Z,4.69
2018-11-29T11:31:05.306Z,4.69
2018-11-29T11:32:05.502Z,4.69
2018-11-29T11:33:05.630Z,4.69
2018-11-29T11:34:05.164Z,4.75
2018-11-29T11:35:05.610Z,4.81
2018-11-29T11:36:05.778Z,4.81
2018-11-29T11:37:05.378Z,4.81
2018-11-29T11:38:05.493Z,4.88
2018-11-29T11:39:05.924Z,4.88
2018-11-29T11:40:06.145Z,4.88
2018-11-29T11:41:05.468Z,4.88
2018-11-29T11:42:05.590Z,4.88
2018-11-29T11:43:05.719Z,4.88
2018-11-29T11:44:05.147Z,4.94
2018-11-29T11:45:05.584Z,4.94
2018-11-29T11:46:05.833Z,4.94
2018-11-29T11:47:05.217Z,4.94
2018-11-29T11:48:05.624Z,4.94
2018-11-29T11:49:05.598Z,5.00
2018-11-29T11:50:05.716Z,5.00
2018-11-29T11:51:05.304Z,5.00
2018-11-29T11:52:05.669Z,5.00
2018-11-29T11:53:05.213Z,5.06
2018-11-29T11:54:05.461Z,5.06
2018-11-29T11:55:05.667Z,5.06
2018-11-29T11:56:05.713Z,5.12
2018-11-29T11:57:05.320Z,5.12
2018-11-29T11:58:05.474Z,5.12
2018-11-29T11:59:05.867Z,5.12
2018-11-29T12:00:05.851Z,5.12
2018-11-29T12:01:05.223Z,5.19
2018-11-29T12:02:05.508Z,5.19
2018-11-29T12:03:05.855Z,5.19
2018-11-29T12:04:05.775Z,5.19
2018-11-29T12:05:05.461Z,5.19
2018-11-29T12:06:05.520Z,5.19
2018-11-29T12:07:05.106Z,5.19
2018-11-29T12:08:05.774Z,5.19
2018-11-29T12:09:05.708Z,5.19
2018-11-29T12:10:05.295Z,5.19
2018-11-29T12:11:05.597Z,5.19
2018-11-29T12:12:05.771Z,5.19
2018-11-29T12:13:05.676Z,5.19
2018-11-29T12:14:05.775Z,5.19
2018-11-29T12:15:05.922Z,5.19
2018-11-29T12:16:05.864Z,5.19
2018-11-29T12:17:05.376Z,5.19
2018-11-29T12:18:05.583Z,5.19
2018-11-29T12:19:05.600Z,5.25
2018-11-29T12:20:05.938Z,5.19
2018-11-29T12:21:05.125Z,5.25
2018-11-29T12:22:05.698Z,5.25
2018-11-29T12:23:05.719Z,5.19
2018-11-29T12:24:06.077Z,5.19
2018-11-29T12:25:05.642Z,5.19
2018-11-29T12:26:05.622Z,5.19
2018-11-29T12:27:05.943Z,5.19
2018-11-29T12:28:05.141Z,5.19
2018-11-29T12:29:05.295Z,5.19
2018-11-29T12:30:05.626Z,5.19
2018-11-29T12:31:05.604Z,5.19
2018-11-29T12:32:05.735Z,5.19
2018-11-29T12:33:05.768Z,5.19
2018-11-29T12:34:05.909Z,5.19
2018-11-29T12:35:05.457Z,5.19
2018-11-29T12:36:05.803Z,5.19
2018-11-29T12:37:05.799Z,5.19
2018-11-29T12:38:05.885Z,5.19
2018-11-29T12:39:05.451Z,5.19
2018-11-29T12:40:06.009Z,5.19
2018-11-29T12:41:05.395Z,5.19
2018-11-29T12:42:05.597Z,5.19
2018-11-29T12:43:05.172Z,5.19
2018-11-29T12:44:05.612Z,5.19
2018-11-29T12:45:05.852Z,5.19
2018-11-29T12:46:06.115Z,5.25
2018-11-29T12:47:05.922Z,5.25
2018-11-29T12:48:05.376Z,5.25
2018-11-29T12:49:05.686Z,5.25
2018-11-29T12:50:05.776Z,5.25
2018-11-29T12:51:05.921Z,5.25
2018-11-29T12:52:05.226Z,5.25
2018-11-29T12:53:05.600Z,5.25
2018-11-29T12:54:05.676Z,5.25
2018-11-29T12:55:05.764Z,5.31
2018-11-29T12:56:06.085Z,5.25
2018-11-29T12:57:05.985Z,5.25
2018-11-29T12:58:05.793Z,5.31
2018-11-29T12:59:05.326Z,5.31
2018-11-29T13:00:05.685Z,5.31
2018-11-29T13:01:05.611Z,5.31
2018-11-29T13:02:05.845Z,5.31
2018-11-29T13:04:05.247Z,5.31
2018-11-29T13:05:05.741Z,5.38
2018-11-29T13:06:05.880Z,5.38
2018-11-29T13:07:05.934Z,5.38
2018-11-29T13:08:05.211Z,5.38
2018-11-29T13:09:05.781Z,5.38
2018-11-29T13:10:05.688Z,5.38
2018-11-29T13:11:08.546Z,5.38